Time;durP1;ratioP1;P1;durP2;ratioP2;P2;SDS_P1;SDS_P2;PMS_P1;PMS_P2;Temp;Humidity;BMP_temperature;BMP_pressure;BME280_temperature;BME280_humidity;BME280_pressure;Samples;Min_cycle;Max_cycle;Signal;HPM_P1;HPM_P2
2022/10/22 00:00:10;;;;;;;5.53;4.40;;;13.90;83.60;;;;;;5084844;28;20043;-77
2022/10/22 00:02:36;;;;;;;6.45;4.45;;;13.90;83.70;;;;;;5131701;27;20506;-78
2022/10/22 00:05:02;;;;;;;5.85;4.78;;;13.90;83.70;;;;;;5098728;27;20043;-78
2022/10/22 00:07:28;;;;;;;6.82;5.25;;;13.90;83.70;;;;;;5116392;27;20488;-78
2022/10/22 00:09:54;;;;;;;8.98;5.43;;;13.90;83.60;;;;;;5116271;27;20118;-78
2022/10/22 00:12:19;;;;;;;7.07;5.47;;;13.80;83.50;;;;;;5133226;27;20038;-78
2022/10/22 00:14:46;;;;;;;8.65;5.93;;;13.80;83.40;;;;;;5116231;27;20164;-78
2022/10/22 00:17:12;;;;;;;7.82;6.00;;;13.80;83.80;;;;;;5133280;27;20050;-78
2022/10/22 00:19:38;;;;;;;10.43;5.97;;;13.80;83.20;;;;;;5106950;28;20043;-77
2022/10/22 00:22:04;;;;;;;10.77;6.22;;;13.80;83.20;;;;;;5097206;27;20391;-78
2022/10/22 00:24:32;;;;;;;8.50;6.47;;;13.70;83.10;;;;;;5099254;27;20199;-78
2022/10/22 00:26:57;;;;;;;8.25;6.53;;;13.70;83.10;;;;;;5132990;27;20070;-79
2022/10/22 00:29:23;;;;;;;9.20;6.60;;;13.70;83.20;;;;;;5081976;27;20039;-78
2022/10/22 00:31:49;;;;;;;7.72;6.28;;;13.60;83.10;;;;;;5115909;27;20039;-79
2022/10/22 00:34:20;;;;;;;6.72;6.10;;;13.60;83.20;;;;;;5115979;27;20028;-79
2022/10/22 00:36:46;;;;;;;11.05;6.60;;;13.60;83.40;;;;;;5115860;27;20027;-78
2022/10/22 00:39:15;;;;;;;8.90;6.50;;;13.60;83.40;;;;;;5115465;27;20092;-77
2022/10/22 00:41:45;;;;;;;7.50;6.25;;;13.50;83.50;;;;;;5133075;27;20039;-78
2022/10/22 00:44:48;;;;;;;9.02;6.30;;;13.50;83.60;;;;;;5115395;27;20050;-77
2022/10/22 00:47:15;;;;;;;10.50;7.47;;;13.50;83.70;;;;;;5109863;28;20127;-77
2022/10/22 00:49:42;;;;;;;6.93;5.70;;;13.50;83.70;;;;;;5115592;28;20482;-77
2022/10/22 00:52:08;;;;;;;10.10;5.82;;;13.40;83.80;;;;;;5098983;28;20138;-77
2022/10/22 00:54:34;;;;;;;8.27;6.22;;;13.40;83.80;;;;;;5117118;27;20047;-78
2022/10/22 00:57:00;;;;;;;7.18;5.43;;;13.40;83.90;;;;;;5137203;27;20043;-77
2022/10/22 00:59:27;;;;;;;6.93;5.53;;;13.40;83.90;;;;;;5119556;27;20046;-78
2022/10/22 01:01:53;;;;;;;8.15;6.28;;;13.40;84.00;;;;;;5120205;27;20113;-77
2022/10/22 01:04:20;;;;;;;7.95;6.18;;;13.40;84.00;;;;;;5136674;27;20089;-78
2022/10/22 01:06:46;;;;;;;10.43;6.32;;;13.40;84.00;;;;;;5137037;27;20027;-78
2022/10/22 01:09:36;;;;;;;9.38;6.97;;;13.30;84.40;;;;;;5136953;27;20046;-77
2022/10/22 01:12:25;;;;;;;11.52;7.18;;;13.30;84.00;;;;;;5119473;27;20035;-78
2022/10/22 01:15:05;;;;;;;11.82;7.13;;;13.40;84.10;;;;;;5136686;27;20607;-77
2022/10/22 01:17:58;;;;;;;13.07;7.57;;;13.30;84.10;;;;;;5119375;27;20038;-78
2022/10/22 01:20:36;;;;;;;12.70;7.38;;;13.30;84.10;;;;;;5136383;27;20039;-77
2022/10/22 01:23:20;;;;;;;10.50;6.97;;;13.30;84.20;;;;;;5119090;27;20031;-78
2022/10/22 01:26:03;;;;;;;8.70;7.18;;;13.30;84.30;;;;;;5136385;27;20107;-77
2022/10/22 01:29:01;;;;;;;13.43;7.65;;;13.30;84.40;;;;;;5136857;27;20482;-77
2022/10/22 01:31:37;;;;;;;12.85;7.35;;;13.30;84.40;;;;;;5136778;27;20031;-78
2022/10/22 01:34:05;;;;;;;11.90;7.32;;;13.20;84.50;;;;;;5136323;27;20066;-78
2022/10/22 01:36:33;;;;;;;9.90;7.40;;;13.20;84.80;;;;;;5098929;28;20075;-78
2022/10/22 01:39:00;;;;;;;13.45;8.73;;;13.20;84.70;;;;;;5133009;27;20043;-77
2022/10/22 01:41:28;;;;;;;13.25;8.60;;;13.20;84.80;;;;;;5118787;27;20046;-78
2022/10/22 01:43:54;;;;;;;12.63;8.52;;;13.20;84.90;;;;;;5135594;27;20431;-78
2022/10/22 01:46:21;;;;;;;12.25;8.63;;;13.20;85.00;;;;;;5118270;27;20502;-77
2022/10/22 01:49:06;;;;;;;12.88;9.00;;;13.30;85.20;;;;;;5136322;27;20384;-77
2022/10/22 01:51:31;;;;;;;;;;;13.30;85.30;;;;;;5133448;27;20049;-79
2022/10/22 01:54:04;;;;;;;10.98;7.78;;;13.20;85.10;;;;;;5118299;27;20009;-79
2022/10/22 01:56:44;;;;;;;10.32;8.32;;;13.20;85.30;;;;;;5118129;27;20054;-79
2022/10/22 01:59:58;;;;;;;15.55;9.07;;;13.30;85.50;;;;;;5118766;27;20368;-78
2022/10/22 02:02:26;;;;;;;13.40;9.32;;;13.30;85.50;;;;;;5108310;27;20051;-76
2022/10/22 02:05:04;;;;;;;12.68;8.88;;;13.30;85.70;;;;;;5135359;27;20055;-76
2022/10/22 02:07:36;;;;;;;13.05;8.57;;;13.30;85.70;;;;;;5134552;27;20035;-77
2022/10/22 02:10:02;;;;;;;12.05;9.02;;;13.30;85.70;;;;;;5118513;27;20045;-77
2022/10/22 02:12:31;;;;;;;10.90;8.38;;;13.30;85.70;;;;;;5118506;27;20111;-77
2022/10/22 02:14:57;;;;;;;15.23;9.07;;;13.40;85.90;;;;;;5135361;27;20130;-77
2022/10/22 02:17:26;;;;;;;14.77;8.70;;;13.30;85.80;;;;;;5118107;27;20035;-77
2022/10/22 02:19:56;;;;;;;9.73;8.27;;;13.30;85.80;;;;;;5135568;27;20074;-77
2022/10/22 02:22:23;;;;;;;12.30;8.18;;;13.40;85.80;;;;;;5118240;27;20046;-77
2022/10/22 02:24:49;;;;;;;10.55;8.07;;;13.30;85.70;;;;;;5135327;27;20032;-77
2022/10/22 02:27:43;;;;;;;10.20;7.60;;;13.30;85.60;;;;;;5118408;27;20467;-77
2022/10/22 02:30:11;;;;;;;9.52;8.27;;;13.30;85.60;;;;;;5118670;27;20047;-78
2022/10/22 02:32:52;;;;;;;10.48;7.43;;;13.30;85.50;;;;;;5118158;27;20494;-78
2022/10/22 02:35:23;;;;;;;13.13;8.98;;;13.30;85.60;;;;;;5135782;27;20448;-78
2022/10/22 02:37:50;;;;;;;12.40;7.68;;;13.30;85.50;;;;;;5134844;27;20042;-78
2022/10/22 02:40:16;;;;;;;15.95;8.48;;;13.30;85.40;;;;;;5135220;27;20035;-78
2022/10/22 02:42:42;;;;;;;13.23;8.55;;;13.20;85.30;;;;;;5117802;27;20552;-77
2022/10/22 02:45:09;;;;;;;13.10;8.13;;;13.20;85.30;;;;;;5134987;27;20117;-77
2022/10/22 02:47:34;;;;;;;12.40;8.23;;;13.20;85.20;;;;;;5100886;27;20451;-77
2022/10/22 02:50:00;;;;;;;11.18;8.13;;;13.20;85.20;;;;;;5118130;27;20125;-78
2022/10/22 02:52:25;;;;;;;12.00;7.85;;;13.20;85.20;;;;;;5118045;27;20505;-78
2022/10/22 02:54:51;;;;;;;11.57;8.57;;;13.20;85.20;;;;;;5135095;27;20517;-78
2022/10/22 02:57:17;;;;;;;9.27;8.10;;;13.20;85.20;;;;;;5098348;27;20531;-78
2022/10/22 02:59:42;;;;;;;11.18;8.23;;;13.10;85.10;;;;;;5117807;27;20043;-78
2022/10/22 03:02:08;;;;;;;14.00;8.82;;;13.10;85.10;;;;;;5117476;27;20039;-78
2022/10/22 03:04:34;;;;;;;11.60;8.13;;;13.10;85.00;;;;;;5117626;27;20103;-78
2022/10/22 03:07:00;;;;;;;12.60;9.15;;;13.10;85.00;;;;;;5117086;27;20066;-78
2022/10/22 03:09:25;;;;;;;10.95;7.93;;;13.10;85.40;;;;;;5134666;27;20042;-78
2022/10/22 03:11:51;;;;;;;14.38;8.50;;;13.10;85.00;;;;;;5134857;27;20050;-78
2022/10/22 03:14:17;;;;;;;10.57;8.05;;;13.10;85.00;;;;;;5134445;27;20127;-77
2022/10/22 03:16:43;;;;;;;11.52;9.07;;;13.10;85.00;;;;;;5100144;27;20110;-78
2022/10/22 03:19:09;;;;;;;15.48;10.50;;;13.10;85.00;;;;;;5117603;27;20382;-78
2022/10/22 03:21:41;;;;;;;10.88;8.35;;;13.00;84.90;;;;;;5116711;27;20114;-77
2022/10/22 03:24:26;;;;;;;9.15;7.00;;;13.00;84.90;;;;;;5117425;27;20502;-78
2022/10/22 03:26:52;;;;;;;8.77;7.47;;;13.00;85.00;;;;;;5112879;27;20083;-78
2022/10/22 03:29:20;;;;;;;9.88;8.07;;;13.00;85.00;;;;;;5083181;27;20031;-78
2022/10/22 03:31:46;;;;;;;12.20;8.10;;;13.00;85.00;;;;;;5134450;27;20039;-78
2022/10/22 03:34:12;;;;;;;12.23;9.00;;;13.00;84.90;;;;;;5134199;27;20478;-78
2022/10/22 03:36:39;;;;;;;14.40;9.10;;;13.00;84.90;;;;;;5116852;27;20100;-78
2022/10/22 03:39:05;;;;;;;12.70;9.70;;;13.00;85.20;;;;;;5133902;27;20071;-78
2022/10/22 03:41:32;;;;;;;10.30;8.80;;;13.00;85.20;;;;;;5116728;27;20035;-78
2022/10/22 03:44:00;;;;;;;15.63;9.25;;;12.90;84.70;;;;;;5085106;28;20040;-78
2022/10/22 03:46:26;;;;;;;15.88;9.23;;;12.90;85.10;;;;;;5113908;27;20122;-78
2022/10/22 03:48:51;;;;;;;13.02;9.88;;;12.90;84.60;;;;;;5133503;27;20152;-77
2022/10/22 03:51:17;;;;;;;12.73;9.93;;;12.90;84.60;;;;;;5133850;27;20074;-78
2022/10/22 03:53:43;;;;;;;13.63;9.95;;;12.80;84.60;;;;;;5116254;27;20375;-78
2022/10/22 03:56:10;;;;;;;14.35;10.02;;;12.80;84.70;;;;;;5133713;27;20035;-78
2022/10/22 03:58:38;;;;;;;14.75;9.93;;;12.80;84.80;;;;;;5116073;27;20073;-78
2022/10/22 04:01:06;;;;;;;13.48;9.68;;;12.80;84.90;;;;;;5104271;27;20406;-78
2022/10/22 04:03:32;;;;;;;14.02;10.57;;;12.80;85.00;;;;;;5133408;27;20591;-78
2022/10/22 04:06:06;;;;;;;18.73;10.63;;;12.80;85.00;;;;;;5116559;27;20057;-78
2022/10/22 04:08:32;;;;;;;16.92;10.75;;;12.80;85.10;;;;;;5116046;27;20406;-78
2022/10/22 04:10:58;;;;;;;16.55;10.70;;;12.70;85.00;;;;;;5133597;27;20031;-78
2022/10/22 04:13:24;;;;;;;11.55;10.32;;;12.70;85.10;;;;;;5150472;27;20172;-78
2022/10/22 04:15:50;;;;;;;18.05;11.80;;;12.70;85.10;;;;;;5150817;27;20163;-78
2022/10/22 04:18:21;;;;;;;16.83;11.43;;;12.70;85.20;;;;;;5132817;27;20043;-78
2022/10/22 04:20:47;;;;;;;15.70;10.80;;;12.70;85.30;;;;;;5133023;27;20047;-78
2022/10/22 04:23:13;;;;;;;14.18;11.15;;;12.70;85.30;;;;;;5099194;27;20043;-78
2022/10/22 04:25:39;;;;;;;13.48;10.90;;;12.70;85.40;;;;;;5149608;27;20043;-78
2022/10/22 04:28:08;;;;;;;13.77;10.98;;;12.70;85.50;;;;;;5103137;28;20301;-78
2022/10/22 04:30:35;;;;;;;17.65;11.48;;;12.70;85.60;;;;;;5115613;28;20057;-78
2022/10/22 04:33:01;;;;;;;14.77;11.00;;;12.70;85.70;;;;;;5132534;27;20038;-78
2022/10/22 04:35:26;;;;;;;13.70;11.05;;;12.70;85.70;;;;;;5116036;27;20047;-78
2022/10/22 04:37:53;;;;;;;15.07;10.95;;;12.70;85.70;;;;;;5115585;28;20371;-78
2022/10/22 04:40:19;;;;;;;16.50;10.57;;;12.70;85.80;;;;;;5132947;27;20482;-78
2022/10/22 04:42:44;;;;;;;15.18;10.43;;;12.70;85.90;;;;;;5115776;27;20092;-78
2022/10/22 04:45:10;;;;;;;14.88;10.60;;;12.70;85.90;;;;;;5132993;27;20083;-77
2022/10/22 04:47:36;;;;;;;19.00;11.10;;;12.70;86.40;;;;;;5115610;28;20398;-78
2022/10/22 04:50:02;;;;;;;13.85;10.25;;;12.70;86.00;;;;;;5115426;27;20043;-78
2022/10/22 04:52:27;;;;;;;15.73;10.32;;;12.70;86.10;;;;;;5115763;28;20038;-78
2022/10/22 04:54:53;;;;;;;21.40;10.70;;;12.70;86.10;;;;;;5095031;28;20035;-78
2022/10/22 04:57:18;;;;;;;16.45;11.23;;;12.80;86.30;;;;;;5112203;28;20048;-78
2022/10/22 04:59:44;;;;;;;14.45;11.00;;;12.80;86.30;;;;;;5095037;28;20071;-78
2022/10/22 05:02:10;;;;;;;15.35;9.95;;;12.80;86.40;;;;;;5132231;28;20031;-78
2022/10/22 05:04:35;;;;;;;13.25;9.60;;;12.80;86.50;;;;;;5115670;27;20039;-77
2022/10/22 05:07:01;;;;;;;18.75;9.30;;;12.80;86.50;;;;;;5115106;27;20371;-78
2022/10/22 05:09:27;;;;;;;15.95;9.60;;;12.90;86.70;;;;;;5098459;28;20035;-77
2022/10/22 05:11:52;;;;;;;14.65;9.18;;;12.90;86.70;;;;;;5132688;27;20118;-78
2022/10/22 05:14:21;;;;;;;13.95;9.10;;;12.90;86.80;;;;;;5098802;28;20046;-78
2022/10/22 05:16:48;;;;;;;17.50;10.55;;;12.90;86.80;;;;;;5115241;28;20043;-78
2022/10/22 05:19:22;;;;;;;18.25;9.88;;;13.00;86.90;;;;;;5081433;28;20035;-78
2022/10/22 05:21:48;;;;;;;18.35;10.25;;;13.00;86.90;;;;;;5115066;28;20375;-78
2022/10/22 05:24:14;;;;;;;15.73;8.30;;;13.00;86.90;;;;;;5132427;28;20064;-78
2022/10/22 05:26:39;;;;;;;19.35;10.07;;;13.00;87.00;;;;;;5098366;28;20059;-78
2022/10/22 05:29:05;;;;;;;16.65;9.70;;;13.00;86.90;;;;;;5132176;28;20525;-78
2022/10/22 05:31:31;;;;;;;14.75;9.32;;;13.10;87.00;;;;;;5115365;27;20060;-78
2022/10/22 05:33:57;;;;;;;17.52;9.68;;;13.10;87.00;;;;;;5098568;28;20104;-78
2022/10/22 05:36:23;;;;;;;14.60;9.02;;;13.10;87.00;;;;;;5115678;28;20038;-78
2022/10/22 05:38:48;;;;;;;15.27;9.10;;;13.10;86.90;;;;;;5132300;28;20099;-78
2022/10/22 05:41:17;;;;;;;18.40;8.90;;;13.10;86.90;;;;;;5115857;27;20418;-78
2022/10/22 05:43:44;;;;;;;17.80;8.93;;;13.10;86.90;;;;;;5136895;27;20043;-78
2022/10/22 05:46:12;;;;;;;13.85;8.85;;;13.20;87.00;;;;;;5119023;27;20070;-78
2022/10/22 05:48:38;;;;;;;15.98;8.65;;;13.20;86.90;;;;;;5136196;27;20394;-78
2022/10/22 05:51:07;;;;;;;14.70;8.60;;;13.20;86.90;;;;;;5119096;27;20039;-78
2022/10/22 05:53:34;;;;;;;15.23;8.38;;;13.20;86.90;;;;;;5118855;27;20126;-78
2022/10/22 05:56:06;;;;;;;10.45;8.38;;;13.20;86.90;;;;;;5101906;27;20039;-78
2022/10/22 05:58:32;;;;;;;14.48;8.68;;;13.30;87.10;;;;;;5118284;27;20156;-78
2022/10/22 06:01:06;;;;;;;13.45;8.65;;;13.30;87.00;;;;;;5115298;28;20044;-78
2022/10/22 06:03:32;;;;;;;12.60;8.02;;;13.30;87.10;;;;;;5116477;27;20156;-77
2022/10/22 06:06:19;;;;;;;14.82;8.25;;;13.30;87.00;;;;;;5118675;27;20129;-77
2022/10/22 06:08:50;;;;;;;13.77;8.20;;;13.30;87.10;;;;;;5135269;27;20391;-77
2022/10/22 06:11:17;;;;;;;13.60;7.97;;;13.30;87.00;;;;;;5135616;27;20047;-77
2022/10/22 06:13:44;;;;;;;14.45;7.68;;;13.30;87.00;;;;;;5135654;27;20123;-77
2022/10/22 06:16:10;;;;;;;13.65;9.30;;;13.40;87.00;;;;;;5118851;27;20179;-77
2022/10/22 06:18:36;;;;;;;14.40;8.18;;;13.40;87.20;;;;;;5117867;27;20058;-77
2022/10/22 06:21:06;;;;;;;14.32;8.68;;;13.40;86.90;;;;;;5101498;27;20043;-78
2022/10/22 06:23:33;;;;;;;13.63;7.10;;;13.40;87.00;;;;;;5118655;27;20380;-77
2022/10/22 06:26:00;;;;;;;10.38;7.47;;;13.40;86.90;;;;;;5118191;27;20039;-77
2022/10/22 06:28:25;;;;;;;15.43;7.97;;;13.40;86.90;;;;;;5135373;27;20035;-77
2022/10/22 06:30:51;;;;;;;11.32;7.18;;;13.50;86.90;;;;;;5118321;27;20096;-77
2022/10/22 06:33:17;;;;;;;11.75;7.10;;;13.50;86.80;;;;;;5135248;27;20066;-77
2022/10/22 06:35:44;;;;;;;18.52;7.60;;;13.50;86.80;;;;;;5135262;27;20039;-77
2022/10/22 06:38:10;;;;;;;12.57;7.78;;;13.50;86.80;;;;;;5135237;27;20441;-77
2022/10/22 06:40:36;;;;;;;13.82;7.38;;;13.50;86.80;;;;;;5118223;27;20043;-78
2022/10/22 06:43:01;;;;;;;13.27;7.90;;;13.50;86.80;;;;;;5135083;27;20099;-77
2022/10/22 06:45:27;;;;;;;13.88;8.00;;;13.50;86.70;;;;;;5097580;28;20040;-78
2022/10/22 06:47:54;;;;;;;10.23;7.55;;;13.50;86.70;;;;;;5116730;27;20092;-78
2022/10/22 06:50:20;;;;;;;18.67;8.48;;;13.50;86.70;;;;;;5100434;27;20046;-78
2022/10/22 06:52:46;;;;;;;14.38;7.20;;;13.50;86.70;;;;;;5117386;27;20542;-78
2022/10/22 06:55:12;;;;;;;15.90;7.85;;;13.60;86.80;;;;;;5134696;27;20130;-77
2022/10/22 06:57:37;;;;;;;12.75;7.57;;;13.60;86.70;;;;;;5101037;27;20118;-78
2022/10/22 07:00:05;;;;;;;14.30;7.78;;;13.60;86.70;;;;;;5117138;27;20402;-77
2022/10/22 07:02:31;;;;;;;16.08;8.05;;;13.60;86.70;;;;;;5100082;27;20054;-78
2022/10/22 07:04:56;;;;;;;12.55;7.53;;;13.60;86.70;;;;;;5100254;27;20039;-78
2022/10/22 07:07:22;;;;;;;13.73;7.60;;;13.60;86.70;;;;;;5117386;27;20071;-78
2022/10/22 07:09:48;;;;;;;11.73;7.13;;;13.70;86.70;;;;;;5117376;27;20131;-77
2022/10/22 07:12:15;;;;;;;15.38;8.00;;;13.70;86.70;;;;;;5100764;27;20042;-78
2022/10/22 07:14:41;;;;;;;12.13;7.53;;;13.70;86.70;;;;;;5117001;27;20035;-78
2022/10/22 07:17:07;;;;;;;13.55;7.35;;;13.70;86.70;;;;;;5096715;28;20042;-77
2022/10/22 07:19:32;;;;;;;11.13;6.70;;;13.70;86.60;;;;;;5074840;28;20027;-77
2022/10/22 07:21:58;;;;;;;14.30;7.13;;;13.70;86.60;;;;;;5100245;27;20031;-77
2022/10/22 07:24:24;;;;;;;9.23;6.60;;;13.80;86.60;;;;;;5099996;27;20042;-79
2022/10/22 07:26:50;;;;;;;11.88;6.80;;;13.80;86.60;;;;;;5099908;27;20103;-78
2022/10/22 07:29:16;;;;;;;9.07;6.28;;;13.70;86.50;;;;;;5133844;27;20483;-78
2022/10/22 07:31:42;;;;;;;16.48;7.20;;;13.80;86.50;;;;;;5117027;27;20163;-76
2022/10/22 07:34:08;;;;;;;13.05;7.00;;;13.80;86.50;;;;;;5116898;27;20031;-77
2022/10/22 07:36:34;;;;;;;15.23;7.20;;;13.80;86.50;;;;;;5133862;27;20081;-77
2022/10/22 15:50:54;;;;;;;4.97;1.80;;;15.90;75.80;;;;;;5124013;27;20193;-76
2022/10/22 15:53:19;;;;;;;10.98;2.85;;;15.90;77.60;;;;;;5088593;28;20119;-76
2022/10/22 15:55:48;;;;;;;15.52;3.53;;;15.90;78.40;;;;;;5083831;28;20081;-77
2022/10/22 15:58:14;;;;;;;13.40;4.88;;;15.90;78.90;;;;;;5084790;28;20129;-77
2022/10/22 16:00:39;;;;;;;9.80;3.85;;;15.80;79.00;;;;;;5083868;28;20133;-77
2022/10/22 16:03:06;;;;;;;16.80;4.75;;;15.80;79.20;;;;;;5093108;28;20141;-77
2022/10/22 16:05:32;;;;;;;16.85;5.05;;;15.80;79.20;;;;;;5101210;28;20048;-77
2022/10/22 16:07:57;;;;;;;20.50;4.88;;;15.80;79.20;;;;;;5068419;28;20067;-77
2022/10/22 16:10:24;;;;;;;10.55;3.83;;;15.80;78.90;;;;;;5083951;28;20056;-80
2022/10/22 16:12:50;;;;;;;14.73;3.95;;;15.80;78.80;;;;;;5066905;28;20039;-76
2022/10/22 16:15:16;;;;;;;14.60;4.45;;;15.80;78.60;;;;;;5096626;28;20115;-76
2022/10/22 16:17:42;;;;;;;11.68;4.07;;;15.70;78.50;;;;;;5098147;28;20116;-76
2022/10/22 16:20:08;;;;;;;11.20;4.95;;;15.70;78.40;;;;;;5082502;28;20055;-76
2022/10/22 16:22:33;;;;;;;12.38;3.42;;;15.70;78.30;;;;;;5083841;28;20050;-75
2022/10/22 16:24:59;;;;;;;11.25;4.38;;;15.70;78.10;;;;;;5099260;28;20042;-76
2022/10/22 16:27:25;;;;;;;12.85;4.05;;;15.70;78.10;;;;;;5089787;28;20033;-75
2022/10/22 16:29:51;;;;;;;11.30;3.17;;;15.70;78.10;;;;;;5063366;28;20040;-76
2022/10/22 16:32:16;;;;;;;10.55;3.63;;;15.70;78.00;;;;;;5064352;28;20033;-76
2022/10/22 16:34:42;;;;;;;9.70;3.17;;;15.60;78.00;;;;;;5047577;28;20099;-76
2022/10/22 16:37:08;;;;;;;8.75;3.10;;;15.70;78.10;;;;;;5080077;28;20392;-77
2022/10/22 16:39:34;;;;;;;10.80;3.70;;;15.60;77.90;;;;;;5064395;28;20080;-76
2022/10/22 16:42:00;;;;;;;11.95;2.97;;;15.60;77.90;;;;;;5062622;28;20088;-76
2022/10/22 16:44:26;;;;;;;8.07;2.55;;;15.60;77.80;;;;;;5080531;28;20040;-76
2022/10/22 16:46:51;;;;;;;10.07;3.13;;;15.60;78.10;;;;;;5063996;28;20045;-76
2022/10/22 16:49:17;;;;;;;10.68;2.78;;;15.60;77.60;;;;;;5063221;28;20103;-76
2022/10/22 16:51:43;;;;;;;9.25;2.97;;;15.60;77.50;;;;;;5046699;28;20438;-76
2022/10/22 16:54:11;;;;;;;8.85;2.60;;;15.50;77.40;;;;;;5063708;28;20494;-76
2022/10/22 16:56:36;;;;;;;12.60;3.35;;;15.50;77.30;;;;;;5079909;28;20032;-77
2022/10/22 16:59:02;;;;;;;7.45;2.28;;;15.50;77.30;;;;;;5063882;28;20044;-77
2022/10/22 17:01:28;;;;;;;12.20;2.75;;;15.50;77.20;;;;;;5054320;28;20045;-77
2022/10/22 17:03:54;;;;;;;9.93;2.83;;;15.40;77.00;;;;;;5062580;28;20476;-77
2022/10/22 17:06:22;;;;;;;9.15;2.67;;;15.40;76.90;;;;;;5033604;28;20037;-76
2022/10/22 17:08:48;;;;;;;9.68;2.30;;;15.40;76.80;;;;;;5050106;28;20056;-77
2022/10/22 17:11:16;;;;;;;10.63;2.78;;;15.40;76.80;;;;;;5041736;28;20498;-76
2022/10/22 17:13:43;;;;;;;8.43;2.47;;;15.40;77.00;;;;;;5079980;28;20040;-76
2022/10/22 17:16:12;;;;;;;8.48;2.30;;;15.30;76.90;;;;;;5037519;28;20429;-77
2022/10/22 17:18:40;;;;;;;8.45;2.28;;;15.20;76.80;;;;;;5053850;28;20039;-76
2022/10/22 17:21:07;;;;;;;9.23;2.95;;;15.30;76.90;;;;;;5054426;28;20381;-77
2022/10/22 17:23:33;;;;;;;7.00;1.98;;;15.20;76.80;;;;;;5069837;28;20508;-75
2022/10/22 17:26:01;;;;;;;9.43;2.35;;;15.20;76.80;;;;;;5071445;28;20071;-76
2022/10/22 17:28:28;;;;;;;7.38;2.03;;;15.20;76.80;;;;;;5055621;28;20044;-77
2022/10/22 17:31:20;;;;;;;6.95;1.73;;;15.10;76.80;;;;;;5054107;28;20041;-77
2022/10/22 17:33:46;;;;;;;7.40;2.20;;;15.10;76.70;;;;;;5037362;28;20041;-76
2022/10/22 17:36:13;;;;;;;7.72;2.20;;;15.10;77.00;;;;;;5053746;28;20067;-75
2022/10/22 17:38:40;;;;;;;8.18;1.88;;;15.00;76.80;;;;;;5045051;28;20032;-76
2022/10/22 17:41:07;;;;;;;7.95;2.25;;;15.00;76.80;;;;;;5057335;28;20381;-76
2022/10/22 17:43:34;;;;;;;9.80;2.05;;;15.00;76.80;;;;;;5057585;28;20076;-76
2022/10/22 17:46:09;;;;;;;7.13;2.45;;;14.90;76.60;;;;;;5057367;28;20040;-75
2022/10/22 17:48:36;;;;;;;8.52;1.95;;;14.90;76.40;;;;;;5053555;28;20407;-75
2022/10/22 17:51:09;;;;;;;7.13;1.95;;;14.80;76.40;;;;;;5022099;28;20045;-76
2022/10/22 17:53:38;;;;;;;9.25;2.45;;;14.80;76.30;;;;;;5056892;28;20060;-75
2022/10/22 17:56:09;;;;;;;8.45;2.83;;;14.70;76.40;;;;;;5054725;28;20037;-75
2022/10/22 17:58:35;;;;;;;10.00;1.70;;;14.70;76.50;;;;;;5063766;28;20076;-76
2022/10/22 18:01:02;;;;;;;9.15;2.15;;;14.70;76.60;;;;;;5037153;28;20443;-76
2022/10/22 18:03:27;;;;;;;8.50;2.13;;;14.60;76.60;;;;;;5053269;28;20025;-76
2022/10/22 18:05:54;;;;;;;9.40;2.22;;;14.60;76.60;;;;;;5059092;28;20044;-75
2022/10/22 18:08:22;;;;;;;7.57;1.95;;;14.50;76.60;;;;;;5047130;28;20037;-75
2022/10/22 18:10:48;;;;;;;5.10;1.73;;;14.50;76.60;;;;;;5052954;28;20546;-77
2022/10/22 18:13:14;;;;;;;6.50;1.98;;;14.50;76.70;;;;;;5052061;28;20037;-77
2022/10/22 18:15:39;;;;;;;8.65;2.10;;;14.40;76.60;;;;;;5036484;28;20037;-77
2022/10/22 18:18:05;;;;;;;5.45;1.77;;;14.40;76.70;;;;;;5069176;28;20119;-77
2022/10/22 18:20:31;;;;;;;6.93;1.88;;;14.30;76.70;;;;;;5052990;28;20044;-77
2022/10/22 18:22:57;;;;;;;6.35;1.80;;;14.30;76.70;;;;;;5039629;28;20041;-77
2022/10/22 18:25:22;;;;;;;9.00;2.30;;;14.30;76.60;;;;;;5040693;28;20043;-77
2022/10/22 18:27:48;;;;;;;7.57;1.73;;;14.20;76.50;;;;;;5064901;28;20045;-77
2022/10/22 18:30:14;;;;;;;4.88;1.67;;;14.20;76.50;;;;;;5052666;28;20037;-77
2022/10/22 18:32:40;;;;;;;9.52;2.20;;;14.10;76.40;;;;;;5052477;28;20042;-77
2022/10/22 18:35:06;;;;;;;4.65;1.67;;;14.10;76.50;;;;;;5053448;28;20043;-77
2022/10/22 18:37:34;;;;;;;8.43;2.03;;;14.10;76.70;;;;;;5069001;28;20037;-77
2022/10/22 18:40:00;;;;;;;5.28;1.77;;;14.00;76.80;;;;;;5037112;28;20569;-77
2022/10/22 18:42:26;;;;;;;8.13;2.35;;;14.00;77.00;;;;;;5076518;28;20133;-76
2022/10/22 18:44:52;;;;;;;6.32;1.92;;;14.00;77.20;;;;;;5052766;28;20463;-76
2022/10/22 18:47:17;;;;;;;7.43;1.73;;;13.90;77.20;;;;;;5057300;28;20044;-75
2022/10/22 18:49:43;;;;;;;8.13;1.70;;;13.90;77.30;;;;;;5058651;28;20065;-76
2022/10/22 18:52:09;;;;;;;7.05;2.05;;;13.90;77.40;;;;;;5065651;28;20106;-76
2022/10/22 18:54:34;;;;;;;7.10;2.60;;;13.90;77.50;;;;;;5042344;28;20132;-76
2022/10/22 18:57:01;;;;;;;6.78;2.47;;;13.80;77.50;;;;;;5019100;28;20037;-75
2022/10/22 18:59:27;;;;;;;6.55;2.95;;;13.80;77.50;;;;;;5068582;28;20489;-75
2022/10/22 19:01:56;;;;;;;4.63;1.70;;;13.80;77.60;;;;;;5052556;28;20055;-76
2022/10/22 19:04:22;;;;;;;11.43;2.75;;;13.80;77.60;;;;;;5052411;28;20461;-76
2022/10/22 19:06:47;;;;;;;6.93;2.30;;;13.70;77.60;;;;;;5052218;28;20051;-76
2022/10/22 19:09:14;;;;;;;9.93;2.47;;;13.70;77.70;;;;;;5035522;28;20068;-75
2022/10/22 19:11:41;;;;;;;7.13;2.35;;;13.70;77.80;;;;;;5048817;28;20044;-75
2022/10/22 19:14:06;;;;;;;6.00;2.63;;;13.70;77.90;;;;;;5047484;28;21468;-75
2022/10/22 19:16:33;;;;;;;8.18;3.05;;;13.70;78.00;;;;;;5048416;28;20155;-74
2022/10/22 19:19:04;;;;;;;9.05;3.08;;;13.60;78.00;;;;;;5079299;28;20091;-75
2022/10/22 19:21:30;;;;;;;7.43;3.67;;;13.60;78.00;;;;;;5047287;28;20041;-75
2022/10/22 19:23:57;;;;;;;7.13;2.95;;;13.60;78.10;;;;;;5046906;28;20561;-75
2022/10/22 19:26:25;;;;;;;10.02;3.78;;;13.60;78.10;;;;;;5030510;28;20044;-76
2022/10/22 19:28:52;;;;;;;7.90;3.55;;;13.50;78.00;;;;;;5062795;28;20469;-75
2022/10/22 19:31:20;;;;;;;7.25;2.92;;;13.50;78.10;;;;;;5047491;28;20055;-75
2022/10/22 19:33:46;;;;;;;10.30;3.47;;;13.40;78.10;;;;;;5047703;28;20041;-76
2022/10/22 19:36:14;;;;;;;12.07;4.13;;;13.40;78.10;;;;;;5044794;28;20056;-76
2022/10/22 19:38:42;;;;;;;7.88;3.38;;;13.40;78.20;;;;;;5080132;28;20500;-77
2022/10/22 19:41:13;;;;;;;8.85;3.20;;;13.40;78.30;;;;;;5046940;28;20033;-75
2022/10/22 19:43:40;;;;;;;7.80;3.42;;;13.40;78.40;;;;;;5063548;28;20037;-75
2022/10/22 19:46:06;;;;;;;7.03;2.67;;;13.40;78.50;;;;;;5043774;28;20585;-74
2022/10/22 19:48:32;;;;;;;9.07;3.78;;;13.30;78.50;;;;;;5046670;28;20036;-74
2022/10/22 19:51:08;;;;;;;8.02;2.83;;;13.30;78.50;;;;;;5046925;28;20049;-75
2022/10/22 19:53:35;;;;;;;8.70;3.85;;;13.30;78.70;;;;;;5047764;28;20598;-75
2022/10/22 19:56:04;;;;;;;8.57;3.20;;;13.30;78.80;;;;;;5046276;28;20029;-75
2022/10/22 19:58:30;;;;;;;9.57;3.40;;;13.30;78.90;;;;;;5046071;28;20033;-76
2022/10/22 20:00:56;;;;;;;6.22;2.78;;;13.20;78.90;;;;;;5046785;28;20137;-75
2022/10/22 20:03:22;;;;;;;9.50;3.10;;;13.20;79.00;;;;;;5047094;28;20076;-76
2022/10/22 20:05:50;;;;;;;7.85;3.92;;;13.20;79.10;;;;;;5046075;28;20049;-76
2022/10/22 20:08:16;;;;;;;6.30;3.55;;;13.20;79.20;;;;;;5030031;28;20083;-75
2022/10/22 20:10:41;;;;;;;10.00;4.57;;;13.20;79.20;;;;;;5062726;28;20496;-75
2022/10/22 20:13:07;;;;;;;6.57;3.83;;;13.20;79.30;;;;;;5047601;28;20037;-75
2022/10/22 20:15:34;;;;;;;8.85;4.93;;;13.20;79.30;;;;;;5029359;28;20080;-75
2022/10/22 20:17:59;;;;;;;7.55;4.40;;;13.20;79.40;;;;;;5055282;28;20036;-75
2022/10/22 20:20:25;;;;;;;16.55;6.32;;;13.20;79.40;;;;;;5061877;28;20036;-76
2022/10/22 20:22:51;;;;;;;18.45;6.55;;;13.10;79.40;;;;;;5047671;28;20162;-76
2022/10/22 20:25:17;;;;;;;17.77;6.57;;;13.10;79.50;;;;;;5063420;28;20390;-74
2022/10/22 20:27:42;;;;;;;10.27;5.97;;;13.10;79.50;;;;;;5046341;28;20175;-75
2022/10/22 20:30:09;;;;;;;16.77;7.47;;;13.10;79.60;;;;;;5059827;28;20450;-75
2022/10/22 20:32:38;;;;;;;18.73;7.80;;;13.10;79.70;;;;;;5046814;28;20040;-75
2022/10/22 20:35:05;;;;;;;15.85;8.75;;;13.10;79.80;;;;;;5047215;28;20083;-76
2022/10/22 20:37:31;;;;;;;17.20;9.60;;;13.10;79.90;;;;;;5049535;28;20054;-75
2022/10/22 20:39:57;;;;;;;13.45;7.80;;;13.10;80.00;;;;;;5051123;28;20052;-76
2022/10/22 20:42:23;;;;;;;13.00;8.00;;;13.00;80.10;;;;;;5050193;28;20032;-76
2022/10/22 20:44:49;;;;;;;13.07;7.68;;;13.00;80.20;;;;;;5050081;28;20128;-76
2022/10/22 20:47:14;;;;;;;16.83;8.13;;;13.00;80.30;;;;;;5052802;28;20048;-76
2022/10/22 20:49:40;;;;;;;16.35;9.20;;;13.00;80.40;;;;;;5047076;28;20428;-76
2022/10/22 20:52:06;;;;;;;20.02;10.65;;;13.00;80.50;;;;;;5032431;28;20040;-76
2022/10/22 20:54:31;;;;;;;17.45;9.18;;;13.00;80.60;;;;;;5053130;28;20120;-76